createdAt,value
2017-06-12T00:00:25.638Z,52.60
2017-06-12T00:02:53.978Z,50.80
2017-06-12T00:05:21.554Z,51.10
2017-06-12T00:07:49.170Z,51.30
2017-06-12T00:10:16.745Z,52.20
2017-06-12T00:12:44.338Z,52.60
2017-06-12T00:15:11.898Z,53.60
2017-06-12T00:17:39.473Z,54.80
2017-06-12T00:20:07.063Z,55.40
2017-06-12T00:22:34.658Z,55.80
2017-06-12T00:25:02.242Z,55.70
2017-06-12T00:27:29.821Z,55.80
2017-06-12T00:29:57.381Z,55.20
2017-06-12T00:32:25.749Z,54.60
2017-06-12T00:34:53.309Z,54.70
2017-06-12T00:37:20.889Z,54.80
2017-06-12T00:39:49.225Z,56.50
2017-06-12T00:42:16.806Z,55.90
2017-06-12T00:44:44.382Z,56.00
2017-06-12T00:47:12.723Z,56.40
2017-06-12T00:49:40.474Z,56.30
2017-06-12T00:52:08.023Z,55.40
2017-06-12T00:54:35.597Z,54.60
2017-06-12T00:57:03.150Z,53.80
2017-06-12T00:59:30.706Z,53.70
2017-06-12T01:01:58.282Z,53.60
2017-06-12T01:04:25.842Z,53.60
2017-06-12T01:06:53.435Z,53.90
2017-06-12T01:09:20.994Z,53.80
2017-06-12T01:11:48.634Z,53.30
2017-06-12T01:14:16.197Z,53.80
2017-06-12T01:16:43.772Z,53.60
2017-06-12T01:19:11.396Z,52.80
2017-06-12T01:21:38.939Z,52.70
2017-06-12T01:24:06.532Z,53.70
2017-06-12T01:26:34.104Z,54.80
2017-06-12T01:29:01.733Z,55.00
2017-06-12T01:31:29.318Z,55.50
2017-06-12T01:33:56.907Z,55.50
2017-06-12T01:36:24.477Z,55.20
2017-06-12T01:38:52.060Z,55.10
2017-06-12T01:41:19.609Z,54.90
2017-06-12T01:43:47.931Z,55.00
2017-06-12T01:46:15.529Z,54.90
2017-06-12T01:48:43.097Z,54.80
2017-06-12T01:51:10.733Z,54.50
2017-06-12T01:53:38.294Z,54.50
2017-06-12T01:56:05.873Z,54.40
2017-06-12T01:58:33.437Z,54.00
2017-06-12T02:01:00.994Z,54.40
2017-06-12T02:03:28.589Z,54.50
2017-06-12T02:05:56.149Z,55.00
2017-06-12T02:08:24.478Z,55.30
2017-06-12T02:10:52.085Z,55.10
2017-06-12T02:13:19.650Z,55.30
2017-06-12T02:15:48.085Z,55.20
2017-06-12T02:18:15.658Z,54.90
2017-06-12T02:20:43.209Z,54.50
2017-06-12T02:23:10.861Z,53.50
2017-06-12T02:25:38.426Z,53.10
2017-06-12T02:28:05.999Z,52.80
2017-06-12T02:30:33.582Z,52.70
2017-06-12T02:33:01.126Z,52.30
2017-06-12T02:35:28.726Z,50.40
2017-06-12T02:37:56.386Z,49.80
2017-06-12T02:40:23.964Z,49.70
2017-06-12T02:42:51.557Z,49.60
2017-06-12T02:45:19.122Z,49.40
2017-06-12T02:47:46.673Z,49.40
2017-06-12T02:50:14.257Z,49.20
2017-06-12T02:52:41.827Z,49.20
2017-06-12T02:55:09.383Z,49.00
2017-06-12T02:57:36.966Z,49.10
2017-06-12T03:00:05.281Z,48.80
2017-06-12T03:02:32.844Z,48.80
2017-06-12T03:05:00.425Z,49.40
2017-06-12T03:07:28.078Z,48.50
2017-06-12T03:10:07.197Z,48.30
2017-06-12T03:12:34.817Z,47.80
2017-06-12T03:15:02.501Z,47.50
2017-06-12T03:17:30.061Z,47.80
2017-06-12T03:19:57.654Z,47.90
2017-06-12T03:22:25.227Z,47.60
2017-06-12T03:24:52.775Z,47.50
2017-06-12T03:27:20.366Z,47.80
2017-06-12T03:29:47.942Z,47.80
2017-06-12T03:32:15.538Z,48.40
2017-06-12T03:34:43.146Z,49.80
2017-06-12T03:37:10.763Z,49.50
2017-06-12T03:39:38.343Z,49.40
2017-06-12T03:42:05.900Z,48.60
2017-06-12T03:44:33.463Z,48.60
2017-06-12T03:47:01.023Z,48.40
2017-06-12T03:49:28.593Z,48.70
2017-06-12T03:51:56.175Z,49.00
2017-06-12T03:54:23.762Z,49.10
2017-06-12T03:56:52.112Z,49.50
2017-06-12T03:59:19.678Z,49.40
2017-06-12T04:01:47.230Z,49.80
2017-06-12T04:04:14.854Z,50.20
2017-06-12T04:06:42.438Z,50.80
2017-06-12T04:09:10.026Z,51.70
2017-06-12T04:11:37.593Z,50.50
2017-06-12T04:14:05.948Z,51.60
2017-06-12T04:16:33.521Z,51.50
2017-06-12T04:19:01.108Z,51.00
2017-06-12T04:21:29.442Z,51.70
2017-06-12T04:23:56.998Z,51.70
2017-06-12T04:26:24.568Z,51.10
2017-06-12T04:28:52.166Z,51.00
2017-06-12T04:31:20.530Z,48.80
2017-06-12T04:33:48.090Z,48.70
2017-06-12T04:36:15.660Z,46.70
2017-06-12T04:38:43.241Z,46.40
2017-06-12T04:41:10.805Z,45.20
2017-06-12T04:43:38.372Z,44.30
2017-06-12T04:46:05.969Z,46.10
2017-06-12T04:48:33.535Z,47.10
2017-06-12T04:51:01.095Z,46.20
2017-06-12T04:53:28.690Z,44.70
2017-06-12T04:55:56.249Z,43.40
2017-06-12T04:58:23.809Z,42.90
2017-06-12T05:00:51.398Z,41.70
2017-06-12T05:03:19.077Z,41.30
2017-06-12T05:05:46.638Z,40.10
2017-06-12T05:08:14.238Z,38.50
2017-06-12T05:10:41.822Z,38.40
2017-06-12T05:13:09.378Z,39.80
2017-06-12T05:15:36.937Z,43.10
2017-06-12T05:18:05.287Z,47.90
2017-06-12T05:20:32.883Z,47.80
2017-06-12T05:23:01.245Z,50.40
2017-06-12T05:25:28.813Z,50.60
2017-06-12T05:27:56.734Z,52.10
2017-06-12T05:30:24.442Z,53.30
2017-06-12T05:32:52.005Z,54.40
2017-06-12T05:35:19.560Z,55.60
2017-06-12T05:37:47.137Z,55.90
2017-06-12T05:40:15.460Z,56.20
2017-06-12T05:42:43.041Z,56.20
2017-06-12T05:45:10.609Z,55.30
2017-06-12T05:47:38.173Z,55.00
2017-06-12T05:50:05.766Z,54.10
2017-06-12T05:52:33.338Z,54.40
2017-06-12T05:55:00.895Z,53.10
2017-06-12T05:57:28.480Z,52.70
2017-06-12T05:59:56.038Z,53.20
2017-06-12T06:02:23.610Z,53.70
2017-06-12T06:04:51.199Z,55.00
2017-06-12T06:07:18.761Z,55.60
2017-06-12T06:09:46.321Z,56.10
2017-06-12T06:12:13.920Z,56.70
2017-06-12T06:14:41.587Z,56.80
2017-06-12T06:17:09.186Z,57.30
2017-06-12T06:19:36.771Z,57.00
2017-06-12T06:22:04.417Z,56.70
2017-06-12T06:24:32.003Z,57.10
2017-06-12T06:26:59.557Z,57.50
2017-06-12T06:29:27.148Z,54.50
2017-06-12T06:31:54.735Z,53.30
2017-06-12T06:34:22.320Z,51.10
2017-06-12T06:36:49.898Z,49.60
2017-06-12T06:39:17.462Z,49.50
2017-06-12T06:41:45.066Z,49.70
2017-06-12T06:44:12.662Z,50.40
2017-06-12T06:46:40.227Z,52.20
2017-06-12T06:49:07.786Z,52.60
2017-06-12T06:51:35.385Z,54.40
2017-06-12T06:54:03.778Z,55.30
2017-06-12T06:56:31.341Z,55.30
2017-06-12T06:58:58.941Z,55.30
2017-06-12T07:01:26.557Z,55.90
2017-06-12T07:03:54.902Z,57.30
2017-06-12T07:06:22.470Z,57.30
2017-06-12T07:08:50.162Z,56.70
2017-06-12T07:11:18.490Z,58.20
2017-06-12T07:13:46.061Z,58.20
2017-06-12T07:16:13.656Z,58.20
2017-06-12T07:18:41.220Z,54.50
2017-06-12T07:21:09.544Z,51.40
2017-06-12T07:23:37.222Z,51.60
2017-06-12T07:26:04.778Z,53.70
2017-06-12T07:28:32.365Z,54.20
2017-06-12T07:30:59.942Z,54.00
2017-06-12T07:33:28.265Z,55.60
2017-06-12T07:35:55.902Z,55.50
2017-06-12T07:38:23.465Z,55.90
2017-06-12T07:40:51.072Z,55.30
2017-06-12T07:43:18.676Z,54.40
2017-06-12T07:45:46.237Z,53.60
2017-06-12T07:48:13.814Z,52.50
2017-06-12T07:50:41.399Z,51.20
2017-06-12T07:53:08.977Z,52.50
2017-06-12T07:55:36.540Z,52.30
2017-06-12T07:58:04.119Z,49.80
2017-06-12T08:00:31.703Z,52.30
2017-06-12T08:02:59.317Z,50.20
2017-06-12T08:05:26.887Z,48.60
2017-06-12T08:07:54.453Z,46.40
2017-06-12T08:10:22.034Z,47.90
2017-06-12T08:12:49.598Z,50.60
2017-06-12T08:15:17.183Z,52.60
2017-06-12T08:17:44.749Z,50.80
2017-06-12T08:20:12.346Z,47.90
2017-06-12T08:22:40.027Z,46.40
2017-06-12T08:25:07.590Z,43.80
2017-06-12T08:27:35.170Z,43.10
2017-06-12T08:30:02.809Z,42.40
2017-06-12T08:32:30.380Z,43.00
2017-06-12T08:34:57.949Z,45.60
2017-06-12T08:37:26.312Z,50.00
2017-06-12T08:39:53.880Z,50.00
2017-06-12T08:42:21.454Z,49.80
2017-06-12T08:44:49.828Z,45.80
2017-06-12T08:47:17.391Z,45.50
2017-06-12T08:49:45.734Z,48.30
2017-06-12T08:52:13.349Z,48.20
2017-06-12T08:54:40.922Z,50.20
2017-06-12T08:57:08.492Z,51.40
2017-06-12T08:59:36.058Z,48.10
2017-06-12T09:02:03.638Z,46.50
2017-06-12T09:04:31.266Z,44.30
2017-06-12T09:06:58.896Z,46.90
2017-06-12T09:09:26.493Z,46.30
2017-06-12T09:11:54.122Z,43.40
2017-06-12T09:14:22.502Z,43.20
2017-06-12T09:16:50.881Z,45.30
2017-06-12T09:19:18.437Z,45.30
2017-06-12T09:21:46.024Z,45.60
2017-06-12T09:24:13.618Z,47.10
2017-06-12T09:26:41.170Z,48.80
2017-06-12T09:29:08.770Z,45.90
2017-06-12T09:31:36.353Z,43.80
2017-06-12T09:34:04.670Z,42.10
2017-06-12T09:36:32.640Z,41.50
2017-06-12T09:39:00.210Z,43.30
2017-06-12T09:41:27.839Z,42.50
2017-06-12T09:43:55.398Z,42.80
2017-06-12T09:46:23.718Z,43.50
2017-06-12T09:48:51.316Z,43.50
2017-06-12T09:51:18.865Z,44.60
2017-06-12T09:53:46.516Z,42.70
2017-06-12T09:56:14.081Z,40.70
2017-06-12T09:58:41.655Z,40.30
2017-06-12T10:01:09.253Z,40.10
2017-06-12T10:03:36.844Z,39.10
2017-06-12T10:06:04.406Z,40.40
2017-06-12T10:08:32.094Z,41.40
2017-06-12T10:10:59.656Z,39.60
2017-06-12T10:13:27.224Z,41.10
2017-06-12T10:15:54.830Z,39.00
2017-06-12T10:18:22.410Z,41.00
2017-06-12T10:20:49.979Z,41.00
2017-06-12T10:23:17.582Z,43.20
2017-06-12T10:25:45.157Z,40.00
2017-06-12T10:28:12.739Z,41.10
2017-06-12T10:30:40.402Z,42.20
2017-06-12T10:33:07.996Z,40.20
2017-06-12T10:35:35.561Z,39.90
2017-06-12T10:38:03.150Z,39.30
2017-06-12T10:40:31.594Z,41.10
2017-06-12T10:42:59.153Z,41.00
2017-06-12T10:45:26.746Z,39.80
2017-06-12T10:47:54.308Z,43.20
2017-06-12T10:50:21.882Z,43.60
2017-06-12T10:52:49.511Z,42.80
2017-06-12T10:55:17.082Z,42.90
2017-06-12T10:57:44.653Z,42.80
2017-06-12T11:00:13.050Z,40.10
2017-06-12T11:02:40.630Z,40.00
2017-06-12T11:05:08.201Z,42.00
2017-06-12T11:07:35.815Z,43.10
2017-06-12T11:10:03.409Z,43.20
2017-06-12T11:12:30.981Z,39.80
2017-06-12T11:14:58.554Z,41.00
2017-06-12T11:17:26.110Z,41.60
2017-06-12T11:19:53.700Z,42.10
2017-06-12T11:22:21.263Z,42.50
2017-06-12T11:24:48.821Z,42.90
2017-06-12T11:27:16.454Z,42.90
2017-06-12T11:29:44.070Z,43.20
2017-06-12T11:32:12.423Z,44.30
2017-06-12T11:34:40.060Z,44.30
2017-06-12T11:37:07.651Z,43.90
2017-06-12T11:39:35.213Z,44.10
2017-06-12T11:42:02.790Z,42.80
2017-06-12T11:44:30.366Z,43.40
2017-06-12T11:46:57.942Z,43.10
2017-06-12T11:49:25.521Z,41.80
2017-06-12T11:51:53.094Z,42.60
2017-06-12T11:54:20.660Z,41.40
2017-06-12T11:56:48.230Z,43.70
2017-06-12T11:59:15.798Z,43.60
2017-06-12T12:01:43.368Z,41.50
2017-06-12T12:04:10.969Z,42.10
2017-06-12T12:06:38.561Z,41.10
2017-06-12T12:09:07.047Z,42.70
2017-06-12T12:11:34.615Z,43.40
2017-06-12T12:14:02.194Z,44.40
2017-06-12T12:16:29.779Z,44.90
2017-06-12T12:18:57.349Z,44.30
2017-06-12T12:21:24.900Z,45.30
2017-06-12T12:23:52.523Z,44.60
2017-06-12T12:26:20.084Z,45.50
2017-06-12T12:28:47.656Z,43.30
2017-06-12T12:31:15.213Z,44.20
2017-06-12T12:33:42.779Z,44.30
2017-06-12T12:36:10.382Z,44.70
2017-06-12T12:38:37.946Z,43.40
2017-06-12T12:41:05.531Z,43.50
2017-06-12T12:43:33.109Z,44.00
2017-06-12T12:46:00.677Z,43.50
2017-06-12T12:48:28.269Z,42.40
2017-06-12T12:50:55.846Z,41.30
2017-06-12T12:53:23.403Z,42.80
2017-06-12T12:55:50.986Z,43.00
2017-06-12T12:58:19.371Z,43.50
2017-06-12T13:00:46.944Z,44.40
2017-06-12T13:03:14.537Z,46.30
2017-06-12T13:05:42.110Z,44.10
2017-06-12T13:08:10.461Z,44.50
2017-06-12T13:10:38.043Z,44.30
2017-06-12T13:13:05.612Z,44.50
2017-06-12T13:15:33.975Z,43.00
2017-06-12T13:18:01.532Z,42.70
2017-06-12T13:20:29.110Z,42.10
2017-06-12T13:22:56.751Z,43.40
2017-06-12T13:25:24.346Z,44.20
2017-06-12T13:27:52.666Z,44.30
2017-06-12T13:30:20.510Z,44.30
2017-06-12T13:32:48.096Z,44.30
2017-06-12T13:35:15.711Z,46.00
2017-06-12T13:37:44.079Z,43.00
2017-06-12T13:40:11.639Z,43.00
2017-06-12T13:42:39.237Z,42.40
2017-06-12T13:45:06.814Z,43.80
2017-06-12T13:47:34.403Z,42.60
2017-06-12T13:50:02.009Z,42.70
2017-06-12T13:52:29.581Z,42.40
2017-06-12T13:54:57.183Z,44.00
2017-06-12T13:57:24.754Z,42.60
2017-06-12T13:59:52.326Z,41.50
2017-06-12T14:02:19.878Z,42.80
2017-06-12T14:04:47.401Z,42.90
2017-06-12T14:07:15.006Z,43.90
2017-06-12T14:09:42.582Z,43.20
2017-06-12T14:12:10.146Z,43.30
2017-06-12T14:14:39.237Z,43.70
2017-06-12T14:17:06.807Z,43.60
2017-06-12T14:19:34.463Z,43.70
2017-06-12T14:22:02.917Z,44.40
2017-06-12T14:24:30.482Z,44.90
2017-06-12T14:26:58.105Z,43.40
2017-06-12T14:29:25.672Z,45.10
2017-06-12T14:31:53.245Z,44.80
2017-06-12T14:34:20.824Z,45.40
2017-06-12T14:36:48.482Z,45.50
2017-06-12T14:39:16.322Z,46.00
2017-06-12T14:41:43.899Z,44.10
2017-06-12T14:44:11.474Z,44.00
2017-06-12T14:46:39.073Z,43.40
2017-06-12T14:49:06.614Z,43.60
2017-06-12T14:51:34.978Z,44.80
2017-06-12T14:54:02.582Z,44.80
2017-06-12T14:56:30.146Z,44.90
2017-06-12T14:58:57.786Z,44.50
2017-06-12T15:01:26.138Z,45.80
2017-06-12T15:03:53.710Z,45.70
2017-06-12T15:06:21.269Z,45.10
2017-06-12T15:08:48.856Z,46.00
2017-06-12T15:11:16.433Z,46.30
2017-06-12T15:13:43.989Z,46.30
2017-06-12T15:16:11.635Z,46.40
2017-06-12T15:18:39.974Z,47.00
2017-06-12T15:21:07.571Z,47.00
2017-06-12T15:23:35.898Z,47.40
2017-06-12T15:26:03.483Z,47.40
2017-06-12T15:28:31.066Z,47.90
2017-06-12T15:30:59.802Z,46.50
2017-06-12T15:33:27.467Z,46.30
2017-06-12T15:35:55.028Z,45.80
2017-06-12T15:38:22.649Z,46.20
2017-06-12T15:40:50.990Z,46.90
2017-06-12T15:43:18.555Z,46.90
2017-06-12T15:45:46.150Z,47.10
2017-06-12T15:48:13.730Z,48.20
2017-06-12T15:50:41.296Z,47.80
2017-06-12T15:53:08.880Z,47.50
2017-06-12T15:55:36.547Z,47.00
2017-06-12T15:58:04.146Z,46.80
2017-06-12T16:00:31.737Z,47.00
2017-06-12T16:02:59.320Z,45.90
2017-06-12T16:05:26.921Z,46.30
2017-06-12T16:07:54.490Z,47.40
2017-06-12T16:10:22.108Z,48.00
2017-06-12T16:12:50.202Z,48.20
2017-06-12T16:15:17.797Z,48.70
2017-06-12T16:17:46.216Z,48.00
2017-06-12T16:20:13.785Z,48.00
2017-06-12T16:22:41.368Z,48.10
2017-06-12T16:25:08.962Z,48.10
2017-06-12T16:27:37.309Z,49.60
2017-06-12T16:30:04.870Z,49.50
2017-06-12T16:32:32.490Z,49.70
2017-06-12T16:35:00.089Z,50.30
2017-06-12T16:37:27.652Z,49.50
2017-06-12T16:39:55.223Z,49.50
2017-06-12T16:42:22.826Z,49.00
2017-06-12T16:44:50.399Z,48.40
2017-06-12T16:47:18.726Z,48.10
2017-06-12T16:49:46.349Z,48.20
2017-06-12T16:52:13.945Z,48.30
2017-06-12T16:54:41.535Z,47.70
2017-06-12T16:57:09.129Z,47.60
2017-06-12T16:59:36.694Z,47.40
2017-06-12T17:02:04.383Z,48.30
2017-06-12T17:04:31.971Z,48.40
2017-06-12T17:07:00.354Z,48.80
2017-06-12T17:09:28.735Z,50.10
2017-06-12T17:11:56.305Z,50.10
2017-06-12T17:14:23.898Z,49.10
2017-06-12T17:16:51.499Z,49.30
2017-06-12T17:19:19.700Z,48.10
2017-06-12T17:21:48.828Z,48.00
2017-06-12T17:24:16.471Z,48.00
2017-06-12T17:26:44.790Z,49.00
2017-06-12T17:29:12.380Z,48.90
2017-06-12T17:31:39.962Z,49.60
2017-06-12T17:34:07.545Z,49.20
2017-06-12T17:36:35.111Z,48.90
2017-06-12T17:39:02.732Z,48.90
2017-06-12T17:41:30.298Z,49.80
2017-06-12T17:43:58.731Z,49.90
2017-06-12T17:46:26.289Z,49.90
2017-06-12T17:48:53.858Z,49.80
2017-06-12T17:51:21.446Z,47.90
2017-06-12T17:53:49.021Z,48.90
2017-06-12T17:56:17.382Z,49.10
2017-06-12T17:58:44.970Z,49.10
2017-06-12T18:01:12.568Z,49.60
2017-06-12T18:03:40.170Z,49.40
2017-06-12T18:06:07.735Z,49.90
2017-06-12T18:08:35.294Z,49.80
2017-06-12T18:11:02.908Z,50.40
2017-06-12T18:13:30.482Z,50.50
2017-06-12T18:15:58.098Z,51.00
2017-06-12T18:18:26.478Z,51.00
2017-06-12T18:20:54.071Z,51.00
2017-06-12T18:23:21.662Z,51.20
2017-06-12T18:25:49.233Z,51.40
2017-06-12T18:28:16.830Z,51.40
2017-06-12T18:30:44.444Z,51.20
2017-06-12T18:33:12.871Z,51.70
2017-06-12T18:35:40.475Z,51.50
2017-06-12T18:38:08.050Z,52.00
2017-06-12T18:40:35.665Z,51.30
2017-06-12T18:43:03.287Z,51.10
2017-06-12T18:45:30.875Z,51.40
2017-06-12T18:47:58.464Z,51.40
2017-06-12T18:50:26.049Z,51.40
2017-06-12T18:52:53.654Z,51.60
2017-06-12T18:55:21.242Z,51.40
2017-06-12T18:57:48.834Z,51.60
2017-06-12T19:00:16.445Z,51.80
2017-06-12T19:02:44.767Z,51.60
2017-06-12T19:05:12.479Z,51.50
2017-06-12T19:07:40.049Z,52.20
2017-06-12T19:10:08.380Z,51.90
2017-06-12T19:22:22.802Z,51.90
2017-06-12T19:24:50.433Z,53.00
2017-06-12T19:27:18.021Z,53.20
2017-06-12T19:29:45.595Z,53.00
2017-06-12T19:32:13.191Z,53.30
2017-06-12T19:34:41.533Z,53.50
2017-06-12T19:37:09.170Z,53.50
2017-06-12T19:39:36.751Z,53.30
2017-06-12T19:42:04.334Z,53.80
2017-06-12T19:44:31.930Z,53.50
2017-06-12T19:47:00.991Z,53.80
2017-06-12T19:49:28.579Z,53.70
2017-06-12T19:51:56.130Z,53.60
2017-06-12T19:54:24.513Z,53.50
2017-06-12T19:56:53.584Z,54.10
2017-06-12T19:59:21.142Z,53.60
2017-06-12T20:01:48.726Z,53.40
2017-06-12T20:04:17.937Z,53.60
2017-06-12T20:06:45.537Z,53.50
2017-06-12T20:09:13.109Z,53.90
2017-06-12T20:11:40.690Z,53.90
2017-06-12T20:14:08.329Z,53.60
2017-06-12T20:16:35.910Z,54.40
2017-06-12T20:19:06.486Z,54.20
2017-06-12T20:21:34.087Z,54.30
2017-06-12T20:24:01.678Z,55.00
2017-06-12T20:26:30.018Z,55.60
2017-06-12T20:28:57.614Z,55.00
2017-06-12T20:31:25.202Z,55.50
2017-06-12T20:33:52.803Z,55.30
2017-06-12T20:36:20.369Z,55.20
2017-06-12T20:38:47.945Z,55.50
2017-06-12T20:41:15.605Z,55.30
2017-06-12T20:43:43.206Z,55.80
2017-06-12T20:46:10.790Z,56.10
2017-06-12T20:48:38.389Z,56.10
2017-06-12T20:51:05.966Z,56.80
2017-06-12T20:53:33.542Z,56.60
2017-06-12T20:56:01.866Z,56.40
2017-06-12T20:58:29.486Z,55.70
2017-06-12T21:00:57.810Z,56.00
2017-06-12T21:03:25.418Z,56.00
2017-06-12T21:05:53.009Z,56.40
2017-06-12T21:08:20.575Z,56.20
2017-06-12T21:10:48.134Z,55.90
2017-06-12T21:13:15.736Z,56.00
2017-06-12T21:15:43.298Z,56.30
2017-06-12T21:18:10.866Z,55.70
2017-06-12T21:20:38.549Z,56.70
2017-06-12T21:23:06.146Z,56.20
2017-06-12T21:25:33.734Z,55.70
2017-06-12T21:28:01.340Z,55.80
2017-06-12T21:30:29.691Z,56.10
2017-06-12T21:32:57.259Z,56.00
2017-06-12T21:35:25.097Z,55.30
2017-06-12T21:37:52.685Z,55.20
2017-06-12T21:40:20.249Z,55.10
2017-06-12T21:42:47.827Z,55.70
2017-06-12T21:45:16.154Z,55.30
2017-06-12T21:47:43.749Z,55.40
2017-06-12T21:50:11.323Z,55.20
2017-06-12T21:52:39.689Z,55.60
2017-06-12T21:55:07.272Z,55.60
2017-06-12T21:57:35.605Z,55.60
2017-06-12T22:00:03.185Z,55.60
2017-06-12T22:02:30.743Z,55.70
2017-06-12T22:04:58.340Z,55.90
2017-06-12T22:07:25.902Z,56.00
2017-06-12T22:09:53.454Z,56.30
2017-06-12T22:12:21.798Z,56.20
2017-06-12T22:14:49.356Z,56.20
2017-06-12T22:17:16.965Z,56.30
2017-06-12T22:19:44.599Z,56.50
2017-06-12T22:22:12.173Z,56.80
2017-06-12T22:24:40.517Z,57.00
2017-06-12T22:27:08.140Z,57.00
2017-06-12T22:29:35.708Z,56.90
2017-06-12T22:32:03.306Z,57.10
2017-06-12T22:34:30.878Z,56.90
2017-06-12T22:36:59.137Z,57.20
2017-06-12T22:39:26.838Z,57.30
2017-06-12T22:41:55.165Z,57.10
2017-06-12T22:44:22.751Z,57.10
2017-06-12T22:46:50.345Z,57.10
2017-06-12T22:49:17.905Z,57.40
2017-06-12T22:51:46.251Z,57.10
2017-06-12T22:54:13.809Z,57.10
2017-06-12T22:56:41.379Z,57.20
2017-06-12T22:59:08.962Z,57.00
2017-06-12T23:01:37.322Z,57.30
2017-06-12T23:04:04.916Z,57.20
2017-06-12T23:06:32.482Z,57.70
2017-06-12T23:09:00.074Z,57.60
2017-06-12T23:11:27.631Z,57.90
2017-06-12T23:13:55.205Z,57.70
2017-06-12T23:16:22.838Z,57.70
2017-06-12T23:18:50.394Z,57.60
2017-06-12T23:21:17.976Z,57.50
2017-06-12T23:23:45.533Z,57.30
2017-06-12T23:26:18.667Z,57.30
2017-06-12T23:28:46.257Z,57.40
2017-06-12T23:31:13.837Z,57.30
2017-06-12T23:33:41.364Z,57.30
2017-06-12T23:36:09.716Z,57.40
2017-06-12T23:38:37.270Z,57.20
2017-06-12T23:41:04.858Z,57.80
2017-06-12T23:43:33.196Z,58.50
2017-06-12T23:46:00.742Z,58.50
2017-06-12T23:48:28.336Z,58.10
2017-06-12T23:50:55.895Z,58.40
2017-06-12T23:53:23.445Z,58.30
2017-06-12T23:55:51.039Z,58.90
2017-06-12T23:58:19.365Z,59.60
